sensor_id;sensor_type;location;lat;lon;timestamp;pressure;altitude;pressure_sealevel;temperature;humidity
73594;BME280;64760;53.404;23.498;2023-04-24T00:01:04;98907.06;;;9.57;60.93
73594;BME280;64760;53.404;23.498;2023-04-24T00:03:33;98904.59;;;9.49;61.47
73594;BME280;64760;53.404;23.498;2023-04-24T00:06:00;98894.38;;;9.39;61.60
73594;BME280;64760;53.404;23.498;2023-04-24T00:08:27;98892.50;;;9.33;61.36
73594;BME280;64760;53.404;23.498;2023-04-24T00:10:54;98895.59;;;9.30;62.08
73594;BME280;64760;53.404;23.498;2023-04-24T00:13:20;98887.81;;;9.22;61.98
73594;BME280;64760;53.404;23.498;2023-04-24T00:15:46;98892.34;;;9.15;62.20
73594;BME280;64760;53.404;23.498;2023-04-24T00:18:13;98893.19;;;9.15;62.37
73594;BME280;64760;53.404;23.498;2023-04-24T00:20:40;98888.63;;;9.16;61.68
73594;BME280;64760;53.404;23.498;2023-04-24T00:23:06;98882.47;;;9.09;61.98
73594;BME280;64760;53.404;23.498;2023-04-24T00:25:33;98881.25;;;9.11;61.68
73594;BME280;64760;53.404;23.498;2023-04-24T00:28:00;98880.03;;;9.07;62.29
73594;BME280;64760;53.404;23.498;2023-04-24T00:30:26;98875.47;;;9.08;61.87
73594;BME280;64760;53.404;23.498;2023-04-24T00:32:53;98882.06;;;9.12;61.79
73594;BME280;64760;53.404;23.498;2023-04-24T00:35:19;98874.47;;;9.15;61.64
73594;BME280;64760;53.404;23.498;2023-04-24T00:37:46;98874.84;;;9.12;61.67
73594;BME280;64760;53.404;23.498;2023-04-24T00:40:12;98868.91;;;9.10;61.84
73594;BME280;64760;53.404;23.498;2023-04-24T00:42:39;98869.34;;;9.07;61.57
73594;BME280;64760;53.404;23.498;2023-04-24T00:45:06;98874.03;;;9.12;61.23
73594;BME280;64760;53.404;23.498;2023-04-24T00:47:33;98869.53;;;9.06;61.02
73594;BME280;64760;53.404;23.498;2023-04-24T00:50:04;98871.41;;;8.99;61.87
73594;BME280;64760;53.404;23.498;2023-04-24T00:52:31;98870.78;;;9.03;61.08
73594;BME280;64760;53.404;23.498;2023-04-24T00:54:59;98865.03;;;9.00;61.53
73594;BME280;64760;53.404;23.498;2023-04-24T00:57:26;98865.00;;;9.06;60.70
73594;BME280;64760;53.404;23.498;2023-04-24T00:59:52;98869.72;;;9.11;60.86
73594;BME280;64760;53.404;23.498;2023-04-24T01:02:19;98868.06;;;9.23;60.05
73594;BME280;64760;53.404;23.498;2023-04-24T01:04:48;98871.34;;;9.12;60.23
73594;BME280;64760;53.404;23.498;2023-04-24T01:07:16;98868.50;;;9.07;60.83
73594;BME280;64760;53.404;23.498;2023-04-24T01:09:45;98874.66;;;9.01;61.01
73594;BME280;64760;53.404;23.498;2023-04-24T01:12:15;98873.66;;;8.95;61.63
73594;BME280;64760;53.404;23.498;2023-04-24T01:14:44;98867.91;;;8.85;61.34
73594;BME280;64760;53.404;23.498;2023-04-24T01:17:11;98864.81;;;8.88;61.38
73594;BME280;64760;53.404;23.498;2023-04-24T01:19:38;98874.06;;;8.99;61.47
73594;BME280;64760;53.404;23.498;2023-04-24T01:22:10;98863.34;;;9.18;60.14
73594;BME280;64760;53.404;23.498;2023-04-24T01:24:37;98867.06;;;9.04;60.41
73594;BME280;64760;53.404;23.498;2023-04-24T01:27:04;98867.06;;;8.98;61.03
73594;BME280;64760;53.404;23.498;2023-04-24T01:29:31;98873.44;;;9.03;60.73
73594;BME280;64760;53.404;23.498;2023-04-24T01:31:57;98866.25;;;8.90;60.83
73594;BME280;64760;53.404;23.498;2023-04-24T01:34:25;98873.03;;;9.00;60.38
73594;BME280;64760;53.404;23.498;2023-04-24T01:36:51;98869.53;;;9.06;60.31
73594;BME280;64760;53.404;23.498;2023-04-24T01:39:17;98872.19;;;9.12;60.05
73594;BME280;64760;53.404;23.498;2023-04-24T01:41:44;98865.00;;;9.13;60.01
73594;BME280;64760;53.404;23.498;2023-04-24T01:44:11;98864.16;;;9.12;59.61
73594;BME280;64760;53.404;23.498;2023-04-24T01:46:37;98862.72;;;9.23;59.96
73594;BME280;64760;53.404;23.498;2023-04-24T01:49:04;98853.66;;;9.17;59.54
73594;BME280;64760;53.404;23.498;2023-04-24T01:51:30;98853.25;;;9.20;59.46
73594;BME280;64760;53.404;23.498;2023-04-24T01:53:57;98863.31;;;9.25;59.40
73594;BME280;64760;53.404;23.498;2023-04-24T01:56:23;98853.66;;;9.24;59.98
73594;BME280;64760;53.404;23.498;2023-04-24T01:58:52;98855.09;;;9.26;59.62
73594;BME280;64760;53.404;23.498;2023-04-24T02:01:20;98841.31;;;9.29;59.45
73594;BME280;64760;53.404;23.498;2023-04-24T02:03:47;98845.03;;;9.22;59.88
73594;BME280;64760;53.404;23.498;2023-04-24T02:06:13;98838.03;;;9.27;59.63
73594;BME280;64760;53.404;23.498;2023-04-24T02:08:40;98838.44;;;9.31;59.63
73594;BME280;64760;53.404;23.498;2023-04-24T02:11:09;98842.31;;;9.35;59.43
73594;BME280;64760;53.404;23.498;2023-04-24T02:13:36;98837.59;;;9.30;59.53
73594;BME280;64760;53.404;23.498;2023-04-24T02:16:02;98834.94;;;9.30;59.31
73594;BME280;64760;53.404;23.498;2023-04-24T02:18:30;98832.41;;;9.42;59.14
73594;BME280;64760;53.404;23.498;2023-04-24T02:20:57;98825.25;;;9.29;59.31
73594;BME280;64760;53.404;23.498;2023-04-24T02:23:23;98828.16;;;9.21;59.91
73594;BME280;64760;53.404;23.498;2023-04-24T02:25:49;98822.00;;;9.14;60.19
73594;BME280;64760;53.404;23.498;2023-04-24T02:28:17;98823.66;;;9.09;60.65
73594;BME280;64760;53.404;23.498;2023-04-24T02:30:43;98830.06;;;9.01;60.98
73594;BME280;64760;53.404;23.498;2023-04-24T02:33:09;98820.19;;;9.02;60.64
73594;BME280;64760;53.404;23.498;2023-04-24T02:35:36;98819.59;;;9.00;60.80
73594;BME280;64760;53.404;23.498;2023-04-24T02:38:03;98823.06;;;9.07;60.74
73594;BME280;64760;53.404;23.498;2023-04-24T02:40:30;98825.31;;;9.10;60.94
73594;BME280;64760;53.404;23.498;2023-04-24T02:42:56;98820.19;;;9.02;61.09
73594;BME280;64760;53.404;23.498;2023-04-24T02:45:23;98820.81;;;9.04;60.81
73594;BME280;64760;53.404;23.498;2023-04-24T02:47:50;98817.94;;;8.99;60.98
73594;BME280;64760;53.404;23.498;2023-04-24T02:50:16;98828.00;;;9.03;61.08
73594;BME280;64760;53.404;23.498;2023-04-24T02:52:42;98817.09;;;9.05;60.68
73594;BME280;64760;53.404;23.498;2023-04-24T02:55:08;98816.47;;;9.09;60.80
73594;BME280;64760;53.404;23.498;2023-04-24T02:57:35;98815.03;;;9.07;60.53
73594;BME280;64760;53.404;23.498;2023-04-24T03:00:01;98814.41;;;9.05;60.69
73594;BME280;64760;53.404;23.498;2023-04-24T03:02:30;98816.50;;;9.03;61.69
73594;BME280;64760;53.404;23.498;2023-04-24T03:04:56;98812.59;;;8.99;61.17
73594;BME280;64760;53.404;23.498;2023-04-24T03:07:23;98822.44;;;9.05;61.22
73594;BME280;64760;53.404;23.498;2023-04-24T03:09:49;98811.16;;;9.03;61.31
73594;BME280;64760;53.404;23.498;2023-04-24T03:12:16;98812.78;;;9.10;61.01
73594;BME280;64760;53.404;23.498;2023-04-24T03:14:44;98809.28;;;9.10;61.49
73594;BME280;64760;53.404;23.498;2023-04-24T03:17:10;98820.16;;;9.15;60.78
73594;BME280;64760;53.404;23.498;2023-04-24T03:19:36;98825.47;;;9.21;60.97
73594;BME280;64760;53.404;23.498;2023-04-24T03:22:08;98828.97;;;9.22;60.69
73594;BME280;64760;53.404;23.498;2023-04-24T03:24:36;98824.84;;;9.26;61.06
73594;BME280;64760;53.404;23.498;2023-04-24T03:27:02;98827.31;;;9.34;60.59
73594;BME280;64760;53.404;23.498;2023-04-24T03:29:49;98832.44;;;9.35;60.43
73594;BME280;64760;53.404;23.498;2023-04-24T03:32:23;98824.00;;;9.38;60.75
73594;BME280;64760;53.404;23.498;2023-04-24T03:34:49;98824.81;;;9.39;60.32
73594;BME280;64760;53.404;23.498;2023-04-24T03:37:16;98817.81;;;9.38;60.65
73594;BME280;64760;53.404;23.498;2023-04-24T03:39:48;98826.03;;;9.36;60.72
73594;BME280;64760;53.404;23.498;2023-04-24T03:42:17;98834.69;;;9.32;61.37
73594;BME280;64760;53.404;23.498;2023-04-24T03:44:51;98824.44;;;9.29;61.34
73594;BME280;64760;53.404;23.498;2023-04-24T03:47:19;98826.47;;;9.33;61.37
73594;BME280;64760;53.404;23.498;2023-04-24T03:49:47;98819.88;;;9.36;60.83
73594;BME280;64760;53.404;23.498;2023-04-24T03:52:13;98830.78;;;9.41;60.57
73594;BME280;64760;53.404;23.498;2023-04-24T03:54:40;98824.19;;;9.37;61.85
73594;BME280;64760;53.404;23.498;2023-04-24T03:57:06;98831.41;;;9.43;61.70
73594;BME280;64760;53.404;23.498;2023-04-24T03:59:35;98823.13;;;9.51;61.66
73594;BME280;64760;53.404;23.498;2023-04-24T04:02:10;98825.38;;;9.54;61.37
73594;BME280;64760;53.404;23.498;2023-04-24T04:04:37;98821.00;;;9.60;61.27
73594;BME280;64760;53.404;23.498;2023-04-24T04:07:03;98829.63;;;9.68;61.37
73594;BME280;64760;53.404;23.498;2023-04-24T04:09:32;98827.72;;;9.75;61.17
73594;BME280;64760;53.404;23.498;2023-04-24T04:11:59;98823.81;;;9.78;61.67
73594;BME280;64760;53.404;23.498;2023-04-24T04:14:27;98818.00;;;9.87;60.78
73594;BME280;64760;53.404;23.498;2023-04-24T04:16:53;98822.91;;;9.97;59.95
73594;BME280;64760;53.404;23.498;2023-04-24T04:19:20;98817.50;;;10.04;60.06
73594;BME280;64760;53.404;23.498;2023-04-24T04:21:46;98812.31;;;10.09;60.10
73594;BME280;64760;53.404;23.498;2023-04-24T04:24:28;98823.41;;;10.19;60.83
73594;BME280;64760;53.404;23.498;2023-04-24T04:26:56;98819.69;;;10.20;60.53
73594;BME280;64760;53.404;23.498;2023-04-24T04:29:28;98812.03;;;10.23;60.53
73594;BME280;64760;53.404;23.498;2023-04-24T04:31:55;98821.50;;;10.26;60.41
73594;BME280;64760;53.404;23.498;2023-04-24T04:34:21;98812.44;;;10.27;61.40
73594;BME280;64760;53.404;23.498;2023-04-24T04:36:49;98814.88;;;10.35;60.88
73594;BME280;64760;53.404;23.498;2023-04-24T04:39:34;98816.00;;;10.46;60.72
73594;BME280;64760;53.404;23.498;2023-04-24T04:42:05;98818.44;;;10.47;61.62
73594;BME280;64760;53.404;23.498;2023-04-24T04:44:43;98817.22;;;10.50;61.26
73594;BME280;64760;53.404;23.498;2023-04-24T04:47:17;98814.53;;;10.50;61.14
73594;BME280;64760;53.404;23.498;2023-04-24T04:49:44;98833.84;;;10.58;61.68
73594;BME280;64760;53.404;23.498;2023-04-24T04:52:18;98822.22;;;10.64;61.66
73594;BME280;64760;53.404;23.498;2023-04-24T04:54:47;98823.78;;;10.78;60.62
73594;BME280;64760;53.404;23.498;2023-04-24T04:57:13;98825.94;;;10.88;60.07
73594;BME280;64760;53.404;23.498;2023-04-24T04:59:39;98819.72;;;10.94;59.83
73594;BME280;64760;53.404;23.498;2023-04-24T05:02:11;98823.34;;;11.00;60.04
73594;BME280;64760;53.404;23.498;2023-04-24T05:04:38;98817.13;;;11.06;60.00
73594;BME280;64760;53.404;23.498;2023-04-24T05:07:04;98821.38;;;11.13;60.02
73594;BME280;64760;53.404;23.498;2023-04-24T05:09:33;98820.81;;;11.23;59.71
73594;BME280;64760;53.404;23.498;2023-04-24T05:12:03;98821.31;;;11.38;58.48
73594;BME280;64760;53.404;23.498;2023-04-24T05:14:33;98817.63;;;11.51;57.45
73594;BME280;64760;53.404;23.498;2023-04-24T05:17:00;98815.91;;;11.56;57.07
73594;BME280;64760;53.404;23.498;2023-04-24T05:19:26;98808.38;;;11.65;57.28
73594;BME280;64760;53.404;23.498;2023-04-24T05:21:54;98811.50;;;11.80;57.90
73594;BME280;64760;53.404;23.498;2023-04-24T05:24:20;98810.16;;;11.89;57.87
73594;BME280;64760;53.404;23.498;2023-04-24T05:27:10;98799.66;;;11.99;55.46
73594;BME280;64760;53.404;23.498;2023-04-24T05:29:40;98808.38;;;12.13;56.19
73594;BME280;64760;53.404;23.498;2023-04-24T05:32:08;98808.97;;;12.27;55.76
73594;BME280;64760;53.404;23.498;2023-04-24T05:34:34;98804.78;;;12.31;55.49
73594;BME280;64760;53.404;23.498;2023-04-24T05:37:01;98804.69;;;12.37;55.22
73594;BME280;64760;53.404;23.498;2023-04-24T05:39:27;98804.25;;;12.52;55.35
73594;BME280;64760;53.404;23.498;2023-04-24T05:41:54;98799.69;;;12.64;55.27
73594;BME280;64760;53.404;23.498;2023-04-24T05:44:23;98805.09;;;12.87;53.93
73594;BME280;64760;53.404;23.498;2023-04-24T05:46:50;98806.03;;;12.93;53.08
73594;BME280;64760;53.404;23.498;2023-04-24T05:49:17;98807.19;;;13.08;54.11
73594;BME280;64760;53.404;23.498;2023-04-24T05:51:45;98807.34;;;13.25;53.71
73594;BME280;64760;53.404;23.498;2023-04-24T05:54:12;98801.47;;;13.28;52.98
73594;BME280;64760;53.404;23.498;2023-04-24T05:56:39;98805.34;;;13.21;52.13
73594;BME280;64760;53.404;23.498;2023-04-24T05:59:06;98796.81;;;13.12;53.51
73594;BME280;64760;53.404;23.498;2023-04-24T06:01:34;98795.50;;;12.91;53.32
73594;BME280;64760;53.404;23.498;2023-04-24T06:04:13;98796.78;;;12.89;53.63
73594;BME280;64760;53.404;23.498;2023-04-24T06:06:40;98799.94;;;12.97;53.79
73594;BME280;64760;53.404;23.498;2023-04-24T06:09:06;98800.44;;;13.18;53.43
73594;BME280;64760;53.404;23.498;2023-04-24T06:11:34;98791.03;;;13.32;53.03
73594;BME280;64760;53.404;23.498;2023-04-24T06:14:00;98794.03;;;13.47;53.41
73594;BME280;64760;53.404;23.498;2023-04-24T06:16:50;98798.34;;;13.59;52.26
73594;BME280;64760;53.404;23.498;2023-04-24T06:19:30;98788.47;;;13.77;52.14
73594;BME280;64760;53.404;23.498;2023-04-24T06:21:57;98788.84;;;13.97;51.85
73594;BME280;64760;53.404;23.498;2023-04-24T06:24:27;98790.06;;;14.06;51.16
73594;BME280;64760;53.404;23.498;2023-04-24T06:26:54;98791.00;;;14.11;51.05
73594;BME280;64760;53.404;23.498;2023-04-24T06:29:20;98783.34;;;14.20;50.38
73594;BME280;64760;53.404;23.498;2023-04-24T06:31:47;98787.00;;;14.31;49.85
73594;BME280;64760;53.404;23.498;2023-04-24T06:34:13;98780.47;;;14.27;49.71
73594;BME280;64760;53.404;23.498;2023-04-24T06:36:40;98790.25;;;14.44;50.23
73594;BME280;64760;53.404;23.498;2023-04-24T06:39:07;98782.41;;;14.60;50.39
73594;BME280;64760;53.404;23.498;2023-04-24T06:41:33;98785.34;;;14.75;50.02
73594;BME280;64760;53.404;23.498;2023-04-24T06:44:00;98789.16;;;14.95;49.62
73594;BME280;64760;53.404;23.498;2023-04-24T06:46:27;98792.31;;;15.09;49.39
73594;BME280;64760;53.404;23.498;2023-04-24T06:48:53;98781.66;;;15.19;48.12
73594;BME280;64760;53.404;23.498;2023-04-24T06:51:23;98789.22;;;15.39;48.63
73594;BME280;64760;53.404;23.498;2023-04-24T06:53:51;98784.88;;;15.38;48.55
73594;BME280;64760;53.404;23.498;2023-04-24T06:56:18;98780.97;;;15.29;47.34
73594;BME280;64760;53.404;23.498;2023-04-24T06:58:44;98790.66;;;15.46;47.08
73594;BME280;64760;53.404;23.498;2023-04-24T07:01:11;98777.38;;;15.62;47.38
73594;BME280;64760;53.404;23.498;2023-04-24T07:03:38;98784.88;;;15.81;46.57
73594;BME280;64760;53.404;23.498;2023-04-24T07:06:05;98786.75;;;16.03;47.11
73594;BME280;64760;53.404;23.498;2023-04-24T07:08:31;98776.81;;;16.08;46.66
73594;BME280;64760;53.404;23.498;2023-04-24T07:10:59;98780.13;;;16.20;45.37
73594;BME280;64760;53.404;23.498;2023-04-24T07:13:26;98783.72;;;16.26;46.01
73594;BME280;64760;53.404;23.498;2023-04-24T07:15:53;98774.97;;;16.45;45.65
73594;BME280;64760;53.404;23.498;2023-04-24T07:18:26;98776.50;;;16.63;46.21
73594;BME280;64760;53.404;23.498;2023-04-24T07:20:55;98785.47;;;16.69;44.57
73594;BME280;64760;53.404;23.498;2023-04-24T07:23:22;98773.69;;;16.85;45.15
73594;BME280;64760;53.404;23.498;2023-04-24T07:25:49;98781.09;;;17.00;44.87
73594;BME280;64760;53.404;23.498;2023-04-24T07:28:15;98787.63;;;17.04;43.99
73594;BME280;64760;53.404;23.498;2023-04-24T07:30:41;98782.00;;;17.20;43.54
73594;BME280;64760;53.404;23.498;2023-04-24T07:33:07;98783.47;;;17.38;43.21
73594;BME280;64760;53.404;23.498;2023-04-24T07:35:34;98784.03;;;17.45;43.33
73594;BME280;64760;53.404;23.498;2023-04-24T07:38:01;98778.44;;;17.62;43.08
73594;BME280;64760;53.404;23.498;2023-04-24T07:40:28;98785.03;;;17.81;43.13
73594;BME280;64760;53.404;23.498;2023-04-24T07:42:55;98782.91;;;18.08;42.56
73594;BME280;64760;53.404;23.498;2023-04-24T07:45:21;98778.63;;;18.22;43.44
73594;BME280;64760;53.404;23.498;2023-04-24T07:47:50;98776.97;;;18.31;42.36
73594;BME280;64760;53.404;23.498;2023-04-24T07:50:16;98776.47;;;18.50;41.15
73594;BME280;64760;53.404;23.498;2023-04-24T07:52:42;98772.69;;;18.61;41.23
73594;BME280;64760;53.404;23.498;2023-04-24T07:55:09;98764.53;;;18.66;41.37
73594;BME280;64760;53.404;23.498;2023-04-24T07:57:36;98776.50;;;18.70;40.01
73594;BME280;64760;53.404;23.498;2023-04-24T08:00:04;98765.63;;;18.85;40.41
73594;BME280;64760;53.404;23.498;2023-04-24T08:02:37;98774.28;;;18.97;39.94
73594;BME280;64760;53.404;23.498;2023-04-24T08:05:04;98762.59;;;19.02;39.20
73594;BME280;64760;53.404;23.498;2023-04-24T08:07:31;98763.38;;;19.07;39.59
73594;BME280;64760;53.404;23.498;2023-04-24T08:09:58;98765.78;;;19.19;39.90
73594;BME280;64760;53.404;23.498;2023-04-24T08:12:25;98768.75;;;19.28;38.88
73594;BME280;64760;53.404;23.498;2023-04-24T08:14:51;98772.56;;;19.32;39.12
73594;BME280;64760;53.404;23.498;2023-04-24T08:17:17;98765.28;;;19.22;38.10
73594;BME280;64760;53.404;23.498;2023-04-24T08:19:44;98762.81;;;19.26;37.99
73594;BME280;64760;53.404;23.498;2023-04-24T08:22:15;98754.41;;;19.12;38.58
73594;BME280;64760;53.404;23.498;2023-04-24T08:24:41;98767.16;;;19.16;37.91
73594;BME280;64760;53.404;23.498;2023-04-24T08:27:08;98753.28;;;19.28;38.21
73594;BME280;64760;53.404;23.498;2023-04-24T08:29:35;98766.03;;;19.38;37.46
73594;BME280;64760;53.404;23.498;2023-04-24T08:32:01;98759.78;;;19.32;37.77
73594;BME280;64760;53.404;23.498;2023-04-24T08:34:28;98760.06;;;19.46;38.08
73594;BME280;64760;53.404;23.498;2023-04-24T08:36:54;98765.41;;;19.66;36.53
73594;BME280;64760;53.404;23.498;2023-04-24T08:39:21;98757.50;;;19.64;36.64
73594;BME280;64760;53.404;23.498;2023-04-24T08:41:48;98761.06;;;19.60;35.92
73594;BME280;64760;53.404;23.498;2023-04-24T08:44:15;98770.84;;;19.66;35.46
73594;BME280;64760;53.404;23.498;2023-04-24T08:46:43;98761.06;;;19.65;35.57
73594;BME280;64760;53.404;23.498;2023-04-24T08:49:14;98762.97;;;19.64;36.23
73594;BME280;64760;53.404;23.498;2023-04-24T08:51:44;98763.50;;;19.66;35.94
73594;BME280;64760;53.404;23.498;2023-04-24T08:54:13;98764.84;;;19.64;35.25
73594;BME280;64760;53.404;23.498;2023-04-24T08:56:42;98765.88;;;19.78;36.59
73594;BME280;64760;53.404;23.498;2023-04-24T08:59:10;98756.50;;;19.99;36.02
73594;BME280;64760;53.404;23.498;2023-04-24T09:01:37;98758.63;;;20.07;35.86
73594;BME280;64760;53.404;23.498;2023-04-24T09:04:07;98765.94;;;20.12;35.18
73594;BME280;64760;53.404;23.498;2023-04-24T09:06:36;98759.56;;;20.37;35.64
73594;BME280;64760;53.404;23.498;2023-04-24T09:09:02;98753.06;;;20.33;34.73
73594;BME280;64760;53.404;23.498;2023-04-24T09:11:32;98753.53;;;20.40;35.28
73594;BME280;64760;53.404;23.498;2023-04-24T09:14:01;98757.03;;;20.45;34.95
73594;BME280;64760;53.404;23.498;2023-04-24T09:16:27;98756.81;;;20.71;35.41
73594;BME280;64760;53.404;23.498;2023-04-24T09:18:55;98741.94;;;20.87;34.67
73594;BME280;64760;53.404;23.498;2023-04-24T09:21:22;98754.38;;;20.98;34.68
73594;BME280;64760;53.404;23.498;2023-04-24T09:24:00;98749.81;;;20.93;33.08
73594;BME280;64760;53.404;23.498;2023-04-24T09:26:29;98748.75;;;20.89;34.59
73594;BME280;64760;53.404;23.498;2023-04-24T09:28:58;98740.91;;;21.12;34.09
73594;BME280;64760;53.404;23.498;2023-04-24T09:31:27;98749.84;;;21.17;33.60
73594;BME280;64760;53.404;23.498;2023-04-24T09:34:02;98746.31;;;21.17;32.82
73594;BME280;64760;53.404;23.498;2023-04-24T09:36:39;98740.31;;;21.15;32.60
73594;BME280;64760;53.404;23.498;2023-04-24T09:39:12;98735.75;;;21.34;33.03
73594;BME280;64760;53.404;23.498;2023-04-24T09:41:52;98734.75;;;21.48;33.13
73594;BME280;64760;53.404;23.498;2023-04-24T09:44:25;98734.53;;;21.45;32.07
73594;BME280;64760;53.404;23.498;2023-04-24T09:46:56;98727.94;;;20.98;30.83
73594;BME280;64760;53.404;23.498;2023-04-24T09:49:30;98729.09;;;20.92;31.15
73594;BME280;64760;53.404;23.498;2023-04-24T09:52:08;98730.66;;;20.98;31.38
73594;BME280;64760;53.404;23.498;2023-04-24T09:54:35;98717.38;;;21.21;30.67
73594;BME280;64760;53.404;23.498;2023-04-24T09:57:07;98723.53;;;21.50;32.16
73594;BME280;64760;53.404;23.498;2023-04-24T09:59:34;98727.94;;;21.46;30.88
73594;BME280;64760;53.404;23.498;2023-04-24T10:02:00;98730.28;;;21.58;31.24
73594;BME280;64760;53.404;23.498;2023-04-24T10:04:28;98716.94;;;21.56;30.92
73594;BME280;64760;53.404;23.498;2023-04-24T10:06:56;98718.56;;;21.57;31.35
73594;BME280;64760;53.404;23.498;2023-04-24T10:09:25;98724.91;;;21.71;30.17
73594;BME280;64760;53.404;23.498;2023-04-24T10:11:54;98721.88;;;21.73;29.64
73594;BME280;64760;53.404;23.498;2023-04-24T10:14:22;98711.97;;;21.58;29.46
73594;BME280;64760;53.404;23.498;2023-04-24T10:16:50;98712.66;;;21.69;29.02
73594;BME280;64760;53.404;23.498;2023-04-24T10:19:19;98714.03;;;22.09;29.56
73594;BME280;64760;53.404;23.498;2023-04-24T10:21:45;98710.16;;;22.10;28.37
73594;BME280;64760;53.404;23.498;2023-04-24T10:24:15;98710.09;;;22.15;29.78
73594;BME280;64760;53.404;23.498;2023-04-24T10:26:43;98699.53;;;22.27;28.38
73594;BME280;64760;53.404;23.498;2023-04-24T10:29:12;98708.19;;;22.15;28.97
73594;BME280;64760;53.404;23.498;2023-04-24T10:31:39;98710.47;;;21.89;29.27
73594;BME280;64760;53.404;23.498;2023-04-24T10:34:06;98711.31;;;21.66;28.98
73594;BME280;64760;53.404;23.498;2023-04-24T10:36:36;98710.63;;;21.98;30.90
73594;BME280;64760;53.404;23.498;2023-04-24T10:39:08;98693.13;;;22.50;29.77
73594;BME280;64760;53.404;23.498;2023-04-24T10:41:37;98703.16;;;22.22;30.10
73594;BME280;64760;53.404;23.498;2023-04-24T10:44:08;98696.91;;;21.84;29.59
73594;BME280;64760;53.404;23.498;2023-04-24T10:46:36;98704.31;;;21.60;29.65
73594;BME280;64760;53.404;23.498;2023-04-24T10:49:07;98707.22;;;21.87;29.14
73594;BME280;64760;53.404;23.498;2023-04-24T10:51:51;98696.72;;;22.32;28.39
73594;BME280;64760;53.404;23.498;2023-04-24T10:54:45;98703.09;;;22.60;27.38
73594;BME280;64760;53.404;23.498;2023-04-24T10:59:45;98700.34;;;23.06;26.14
73594;BME280;64760;53.404;23.498;2023-04-24T11:02:14;98698.31;;;23.38;24.25
73594;BME280;64760;53.404;23.498;2023-04-24T11:04:41;98691.00;;;22.79;23.66
73594;BME280;64760;53.404;23.498;2023-04-24T11:07:14;98709.19;;;22.38;26.55
73594;BME280;64760;53.404;23.498;2023-04-24T11:09:41;98708.28;;;21.91;28.11
73594;BME280;64760;53.404;23.498;2023-04-24T11:12:11;98703.72;;;21.63;28.33
73594;BME280;64760;53.404;23.498;2023-04-24T11:17:33;98692.88;;;21.58;28.75
73594;BME280;64760;53.404;23.498;2023-04-24T11:20:03;98698.53;;;21.85;28.63
73594;BME280;64760;53.404;23.498;2023-04-24T11:22:34;98691.56;;;21.74;27.59
73594;BME280;64760;53.404;23.498;2023-04-24T11:25:03;98690.56;;;22.08;27.13
73594;BME280;64760;53.404;23.498;2023-04-24T11:27:38;98683.84;;;22.19;26.48
73594;BME280;64760;53.404;23.498;2023-04-24T11:30:06;98686.91;;;22.31;26.99
73594;BME280;64760;53.404;23.498;2023-04-24T11:32:36;98690.78;;;22.11;27.19
73594;BME280;64760;53.404;23.498;2023-04-24T11:35:12;98683.56;;;22.01;25.56
73594;BME280;64760;53.404;23.498;2023-04-24T11:37:41;98695.88;;;21.80;26.38
73594;BME280;64760;53.404;23.498;2023-04-24T11:40:10;98683.91;;;22.14;27.86
73594;BME280;64760;53.404;23.498;2023-04-24T11:42:38;98680.22;;;22.56;26.12
73594;BME280;64760;53.404;23.498;2023-04-24T11:45:10;98682.72;;;23.12;27.30
73594;BME280;64760;53.404;23.498;2023-04-24T11:47:37;98681.91;;;23.52;26.69
73594;BME280;64760;53.404;23.498;2023-04-24T11:50:06;98668.84;;;23.85;26.60
73594;BME280;64760;53.404;23.498;2023-04-24T11:52:36;98670.78;;;23.84;25.89
73594;BME280;64760;53.404;23.498;2023-04-24T11:55:04;98681.09;;;23.38;25.93
73594;BME280;64760;53.404;23.498;2023-04-24T11:57:30;98670.38;;;22.87;25.47
73594;BME280;64760;53.404;23.498;2023-04-24T12:00:04;98672.75;;;22.61;25.86
73594;BME280;64760;53.404;23.498;2023-04-24T12:02:38;98674.41;;;22.89;25.80
73594;BME280;64760;53.404;23.498;2023-04-24T12:05:05;98667.00;;;23.31;26.42
73594;BME280;64760;53.404;23.498;2023-04-24T12:07:40;98661.25;;;23.19;25.23
73594;BME280;64760;53.404;23.498;2023-04-24T12:10:09;98655.78;;;23.19;24.91
73594;BME280;64760;53.404;23.498;2023-04-24T12:12:35;98657.56;;;23.37;25.75
73594;BME280;64760;53.404;23.498;2023-04-24T12:15:06;98660.75;;;23.17;25.14
73594;BME280;64760;53.404;23.498;2023-04-24T12:17:34;98660.00;;;22.70;25.68
73594;BME280;64760;53.404;23.498;2023-04-24T12:20:04;98658.56;;;22.59;26.29
73594;BME280;64760;53.404;23.498;2023-04-24T12:22:51;98653.19;;;22.22;25.95
73594;BME280;64760;53.404;23.498;2023-04-24T12:25:42;98649.09;;;22.06;26.90
73594;BME280;64760;53.404;23.498;2023-04-24T12:28:12;98643.72;;;21.63;27.19
73594;BME280;64760;53.404;23.498;2023-04-24T12:30:43;98641.72;;;21.87;25.54
73594;BME280;64760;53.404;23.498;2023-04-24T12:33:10;98642.78;;;21.91;25.90
73594;BME280;64760;53.404;23.498;2023-04-24T12:35:40;98648.81;;;21.88;26.79
73594;BME280;64760;53.404;23.498;2023-04-24T12:38:28;98650.22;;;21.67;27.47
73594;BME280;64760;53.404;23.498;2023-04-24T12:41:07;98652.03;;;21.34;28.00
73594;BME280;64760;53.404;23.498;2023-04-24T12:43:33;98645.91;;;21.00;27.22
73594;BME280;64760;53.404;23.498;2023-04-24T12:46:01;98644.34;;;20.94;27.97
73594;BME280;64760;53.404;23.498;2023-04-24T12:48:28;98638.25;;;20.78;28.70
73594;BME280;64760;53.404;23.498;2023-04-24T12:50:56;98636.09;;;20.75;29.23
73594;BME280;64760;53.404;23.498;2023-04-24T12:53:22;98637.50;;;20.73;29.89
73594;BME280;64760;53.404;23.498;2023-04-24T12:55:49;98633.59;;;20.55;30.29
73594;BME280;64760;53.404;23.498;2023-04-24T12:58:19;98623.34;;;20.47;30.60
73594;BME280;64760;53.404;23.498;2023-04-24T13:00:46;98635.34;;;20.46;31.29
73594;BME280;64760;53.404;23.498;2023-04-24T13:03:14;98622.78;;;20.50;30.71
73594;BME280;64760;53.404;23.498;2023-04-24T13:05:42;98624.16;;;20.71;29.73